createdAt,value
2018-06-21T00:01:07.948Z,5.60
2018-06-21T00:03:37.249Z,5.27
2018-06-21T00:06:06.552Z,5.57
2018-06-21T00:08:35.831Z,6.23
2018-06-21T00:11:05.273Z,4.80
2018-06-21T00:13:34.557Z,5.40
2018-06-21T00:16:03.903Z,5.23
2018-06-21T00:18:33.272Z,5.20
2018-06-21T00:21:02.855Z,5.57
2018-06-21T00:23:32.152Z,5.40
2018-06-21T00:26:01.609Z,5.30
2018-06-21T00:28:30.897Z,5.10
2018-06-21T00:31:00.204Z,5.10
2018-06-21T00:33:29.522Z,5.80
2018-06-21T00:35:58.802Z,5.20
2018-06-21T00:38:28.118Z,5.33
2018-06-21T00:40:57.424Z,5.20
2018-06-21T00:43:26.680Z,5.53
2018-06-21T00:45:55.968Z,5.20
2018-06-21T00:48:25.274Z,5.60
2018-06-21T00:50:54.607Z,5.73
2018-06-21T00:53:23.942Z,5.60
2018-06-21T00:56:09.938Z,5.37
2018-06-21T00:58:39.228Z,5.60
2018-06-21T01:01:08.706Z,5.20
2018-06-21T01:03:38.049Z,5.67
2018-06-21T01:08:28.876Z,5.83
2018-06-21T01:10:58.253Z,6.20
2018-06-21T01:13:27.536Z,6.00
2018-06-21T01:15:56.816Z,6.03
2018-06-21T01:18:26.133Z,6.30
2018-06-21T01:20:55.534Z,6.17
2018-06-21T01:23:24.904Z,6.00
2018-06-21T01:25:54.209Z,6.20
2018-06-21T01:28:23.507Z,6.47
2018-06-21T01:30:52.902Z,7.03
2018-06-21T01:33:22.218Z,6.80
2018-06-21T01:35:51.579Z,7.67
2018-06-21T01:38:20.852Z,7.37
2018-06-21T01:40:50.160Z,8.33
2018-06-21T01:43:19.645Z,6.97
2018-06-21T01:45:48.703Z,9.27
2018-06-21T01:48:17.971Z,9.23
2018-06-21T01:50:47.250Z,9.03
2018-06-21T01:53:16.552Z,26.33
2018-06-21T01:55:45.916Z,23.33
2018-06-21T01:58:15.284Z,28.90
2018-06-21T02:00:44.656Z,25.53
2018-06-21T02:03:14.014Z,29.10
2018-06-21T02:05:43.358Z,27.77
2018-06-21T02:08:12.678Z,29.23
2018-06-21T02:10:43.091Z,29.00
2018-06-21T02:13:13.449Z,22.87
2018-06-21T02:15:43.201Z,21.07
2018-06-21T02:18:12.930Z,21.23
2018-06-21T02:20:42.279Z,18.37
2018-06-21T02:23:11.736Z,16.73
2018-06-21T02:25:41.391Z,15.07
2018-06-21T02:28:11.638Z,16.77
2018-06-21T02:30:41.132Z,17.40
2018-06-21T02:33:11.192Z,17.97
2018-06-21T02:35:41.681Z,19.13
2018-06-21T02:38:12.413Z,17.20
2018-06-21T02:40:42.491Z,14.77
2018-06-21T02:43:12.905Z,12.23
2018-06-21T02:45:42.696Z,10.77
2018-06-21T02:48:12.976Z,9.40
2018-06-21T02:50:43.057Z,8.20
2018-06-21T02:53:13.164Z,8.57
2018-06-21T02:55:42.818Z,7.87
2018-06-21T02:58:12.171Z,7.83
2018-06-21T03:00:41.663Z,7.47
2018-06-21T03:03:11.233Z,7.30
2018-06-21T03:05:40.649Z,7.73
2018-06-21T03:08:12.200Z,7.73
2018-06-21T03:10:42.475Z,8.10
2018-06-21T03:13:11.899Z,8.17
2018-06-21T03:15:42.575Z,7.40
2018-06-21T03:18:12.516Z,7.37
2018-06-21T03:20:42.143Z,8.33
2018-06-21T03:23:12.495Z,7.70
2018-06-21T03:25:42.145Z,7.63
2018-06-21T03:28:11.618Z,8.20
2018-06-21T03:30:41.280Z,8.90
2018-06-21T03:33:10.668Z,8.07
2018-06-21T03:35:40.036Z,8.70
2018-06-21T03:38:09.421Z,8.00
2018-06-21T03:40:38.782Z,8.13
2018-06-21T03:43:08.150Z,8.50
2018-06-21T03:45:37.510Z,7.97
2018-06-21T03:48:06.899Z,8.27
2018-06-21T03:50:36.766Z,8.50
2018-06-21T03:53:06.237Z,8.87
2018-06-21T03:55:35.626Z,10.17
2018-06-21T03:58:05.024Z,10.93
2018-06-21T04:00:34.429Z,10.87
2018-06-21T04:03:04.066Z,11.60
2018-06-21T04:05:33.402Z,11.30
2018-06-21T04:08:02.840Z,8.87
2018-06-21T04:10:32.143Z,8.37
2018-06-21T04:13:01.602Z,7.83
2018-06-21T04:15:30.961Z,8.37
2018-06-21T04:18:00.394Z,8.00
2018-06-21T04:20:29.725Z,7.53
2018-06-21T04:22:59.328Z,7.27
2018-06-21T04:25:29.475Z,7.70
2018-06-21T04:27:58.751Z,7.67
2018-06-21T04:30:28.087Z,7.73
2018-06-21T04:32:57.618Z,7.47
2018-06-21T04:35:27.154Z,7.60
2018-06-21T04:37:56.620Z,7.47
2018-06-21T04:40:25.986Z,8.07
2018-06-21T04:42:55.287Z,7.60
2018-06-21T04:45:24.785Z,7.83
2018-06-21T04:47:54.315Z,7.80
2018-06-21T04:50:23.633Z,8.20
2018-06-21T04:52:52.933Z,7.33
2018-06-21T04:55:22.236Z,7.63
2018-06-21T04:57:51.647Z,8.13
2018-06-21T05:00:21.002Z,7.90
2018-06-21T05:02:50.301Z,8.60
2018-06-21T05:05:19.719Z,9.47
2018-06-21T05:07:49.307Z,9.43
2018-06-21T05:10:18.608Z,10.53
2018-06-21T05:12:47.930Z,11.00
2018-06-21T05:15:17.302Z,10.43
2018-06-21T05:17:46.618Z,11.97
2018-06-21T05:20:15.920Z,12.80
2018-06-21T05:22:45.286Z,14.57
2018-06-21T05:25:14.827Z,14.97
2018-06-21T05:27:44.064Z,14.47
2018-06-21T05:30:13.460Z,16.83
2018-06-21T05:32:42.833Z,16.30
2018-06-21T05:35:12.219Z,17.50
2018-06-21T05:37:41.629Z,16.50
2018-06-21T05:40:27.314Z,15.03
2018-06-21T05:42:56.634Z,19.40
2018-06-21T05:45:25.903Z,19.33
2018-06-21T05:47:55.177Z,19.30
2018-06-21T05:50:24.594Z,18.47
2018-06-21T05:52:54.023Z,19.87
2018-06-21T05:55:23.328Z,18.57
2018-06-21T05:57:52.820Z,20.90
2018-06-21T06:00:22.343Z,20.77
2018-06-21T06:02:51.893Z,21.33
2018-06-21T06:05:21.280Z,20.80
2018-06-21T06:07:50.810Z,21.70
2018-06-21T06:10:20.440Z,20.60
2018-06-21T06:12:49.771Z,20.93
2018-06-21T06:15:19.045Z,21.53
2018-06-21T06:17:48.322Z,22.27
2018-06-21T06:20:17.592Z,21.93
2018-06-21T06:22:46.882Z,21.37
2018-06-21T06:25:15.968Z,21.27
2018-06-21T06:27:45.310Z,19.43
2018-06-21T06:30:14.833Z,19.57
2018-06-21T06:32:44.256Z,18.57
2018-06-21T06:35:13.666Z,18.33
2018-06-21T06:37:42.807Z,18.70
2018-06-21T06:40:12.222Z,18.50
2018-06-21T06:42:41.597Z,17.47
2018-06-21T06:45:10.895Z,16.97
2018-06-21T06:47:40.334Z,15.97
2018-06-21T06:50:09.919Z,16.47
2018-06-21T06:52:40.302Z,14.10
2018-06-21T06:55:09.669Z,15.53
2018-06-21T06:57:39.461Z,16.90
2018-06-21T07:00:09.086Z,14.30
2018-06-21T07:02:38.484Z,14.93
2018-06-21T07:05:08.539Z,14.30
2018-06-21T07:07:38.049Z,12.77
2018-06-21T07:10:07.469Z,12.53
2018-06-21T07:12:36.767Z,14.60
2018-06-21T07:15:06.189Z,13.57
2018-06-21T07:17:35.518Z,13.53
2018-06-21T07:20:04.809Z,12.93
2018-06-21T07:22:34.113Z,12.13
2018-06-21T07:25:03.397Z,13.00
2018-06-21T07:27:32.731Z,11.67
2018-06-21T07:30:02.047Z,12.20
2018-06-21T07:32:31.381Z,11.17
2018-06-21T07:35:00.712Z,10.27
2018-06-21T07:37:30.253Z,10.27
2018-06-21T07:39:59.500Z,9.97
2018-06-21T07:42:28.821Z,10.37
2018-06-21T07:44:58.142Z,8.30
2018-06-21T07:47:27.131Z,7.87
2018-06-21T07:49:56.396Z,7.30
2018-06-21T07:52:25.691Z,5.60
2018-06-21T07:54:55.089Z,4.87
2018-06-21T07:57:24.367Z,3.83
2018-06-21T07:59:53.837Z,3.70
2018-06-21T08:02:23.320Z,3.87
2018-06-21T08:04:52.618Z,3.57
2018-06-21T08:07:22.920Z,3.70
2018-06-21T08:09:52.197Z,3.80
2018-06-21T08:12:21.450Z,4.03
2018-06-21T08:14:50.748Z,3.50
2018-06-21T08:17:19.990Z,3.40
2018-06-21T08:19:49.329Z,3.30
2018-06-21T08:22:18.619Z,2.70
2018-06-21T08:24:47.898Z,3.17
2018-06-21T08:27:17.171Z,2.40
2018-06-21T08:29:46.554Z,3.13
2018-06-21T08:32:15.962Z,3.37
2018-06-21T08:34:45.526Z,3.20
2018-06-21T08:37:14.872Z,3.00
2018-06-21T08:39:44.216Z,2.93
2018-06-21T08:42:13.556Z,3.13
2018-06-21T08:44:43.048Z,2.87
2018-06-21T08:47:12.438Z,2.70
2018-06-21T08:49:41.979Z,3.00
2018-06-21T08:52:11.298Z,2.83
2018-06-21T08:54:40.755Z,2.80
2018-06-21T08:57:10.141Z,2.70
2018-06-21T08:59:39.588Z,2.67
2018-06-21T09:02:08.089Z,2.53
2018-06-21T09:04:37.389Z,2.50
2018-06-21T09:07:06.677Z,2.40
2018-06-21T09:09:35.992Z,2.53
2018-06-21T09:12:05.332Z,2.43
2018-06-21T09:14:34.599Z,2.33
2018-06-21T09:17:03.868Z,2.03
2018-06-21T09:19:33.131Z,2.33
2018-06-21T09:22:02.436Z,2.03
2018-06-21T09:24:31.504Z,2.40
2018-06-21T09:30:00.338Z,2.43
2018-06-21T09:32:30.752Z,2.10
2018-06-21T09:35:00.031Z,2.50
2018-06-21T09:37:34.406Z,2.20
2018-06-21T09:40:08.769Z,2.67
2018-06-21T09:43:50.298Z,2.10
2018-06-21T09:46:15.506Z,2.03
2018-06-21T09:48:49.826Z,2.37
2018-06-21T09:51:19.556Z,2.30
2018-06-21T09:53:48.821Z,2.10
2018-06-21T09:56:18.172Z,2.27
2018-06-21T09:58:47.507Z,2.00
2018-06-21T10:01:16.953Z,2.17
2018-06-21T10:03:46.449Z,2.30
2018-06-21T10:06:15.734Z,2.20
2018-06-21T10:08:45.028Z,2.03
2018-06-21T10:11:14.316Z,4.43
2018-06-21T10:13:43.628Z,1.97
2018-06-21T10:16:13.080Z,2.50
2018-06-21T10:18:42.415Z,2.23
2018-06-21T10:21:11.883Z,1.77
2018-06-21T10:23:40.880Z,2.20
2018-06-21T10:26:10.255Z,1.93
2018-06-21T10:28:39.617Z,1.93
2018-06-21T10:31:08.922Z,2.23
2018-06-21T10:33:38.230Z,2.40
2018-06-21T10:36:07.566Z,2.10
2018-06-21T10:38:36.841Z,2.10
2018-06-21T10:41:06.233Z,1.97
2018-06-21T10:43:35.514Z,2.13
2018-06-21T10:46:04.825Z,1.83
2018-06-21T10:48:34.234Z,1.80
2018-06-21T10:51:03.547Z,2.20
2018-06-21T10:53:32.795Z,2.10
2018-06-21T10:56:02.099Z,2.23
2018-06-21T10:58:31.458Z,1.60
2018-06-21T11:01:00.781Z,1.57
2018-06-21T11:03:29.985Z,1.73
2018-06-21T11:05:59.242Z,2.10
2018-06-21T11:08:28.629Z,1.93
2018-06-21T11:10:57.909Z,1.50
2018-06-21T11:13:27.176Z,1.80
2018-06-21T11:15:56.594Z,1.47
2018-06-21T11:18:25.850Z,2.00
2018-06-21T11:20:55.153Z,1.90
2018-06-21T11:23:24.414Z,1.30
2018-06-21T11:25:53.735Z,1.27
2018-06-21T11:28:23.069Z,1.40
2018-06-21T11:30:52.347Z,1.60
2018-06-21T11:33:21.633Z,1.73
2018-06-21T11:35:50.919Z,1.83
2018-06-21T11:38:20.318Z,1.50
2018-06-21T11:40:49.617Z,1.73
2018-06-21T11:43:18.957Z,2.03
2018-06-21T11:45:48.238Z,1.47
2018-06-21T11:48:17.552Z,1.60
2018-06-21T11:50:46.867Z,1.20
2018-06-21T11:53:17.231Z,1.30
2018-06-21T11:55:46.617Z,1.33
2018-06-21T11:58:15.866Z,1.80
2018-06-21T12:00:49.254Z,1.27
2018-06-21T12:03:18.762Z,1.40
2018-06-21T12:05:48.443Z,1.30
2018-06-21T12:08:17.784Z,1.40
2018-06-21T12:10:47.018Z,2.00
2018-06-21T12:13:16.313Z,1.77
2018-06-21T12:15:45.555Z,1.57
2018-06-21T12:18:14.922Z,1.73
2018-06-21T12:20:44.314Z,1.40
2018-06-21T12:23:13.579Z,1.77
2018-06-21T12:25:42.970Z,1.53
2018-06-21T12:28:12.550Z,1.40
2018-06-21T12:30:42.023Z,1.40
2018-06-21T12:33:11.323Z,1.40
2018-06-21T12:35:41.173Z,2.23
2018-06-21T12:38:10.638Z,1.60
2018-06-21T12:40:39.960Z,1.60
2018-06-21T12:43:09.420Z,1.70
2018-06-21T12:45:38.706Z,1.83
2018-06-21T12:48:07.988Z,1.50
2018-06-21T12:50:37.347Z,1.40
2018-06-21T12:53:06.596Z,1.30
2018-06-21T12:55:35.895Z,1.30
2018-06-21T12:58:05.249Z,1.97
2018-06-21T13:00:34.541Z,1.50
2018-06-21T13:03:03.792Z,1.43
2018-06-21T13:05:33.173Z,1.40
2018-06-21T13:08:02.408Z,1.60
2018-06-21T13:10:48.453Z,1.80
2018-06-21T13:13:23.867Z,2.03
2018-06-21T13:15:53.248Z,1.97
2018-06-21T13:18:22.557Z,1.87
2018-06-21T13:20:51.878Z,1.70
2018-06-21T13:23:21.171Z,1.97
2018-06-21T13:25:50.433Z,1.90
2018-06-21T13:28:19.697Z,1.63
2018-06-21T13:30:48.970Z,1.43
2018-06-21T13:33:18.294Z,1.77
2018-06-21T13:35:47.609Z,1.93
2018-06-21T13:38:16.917Z,1.70
2018-06-21T13:40:46.195Z,1.70
2018-06-21T13:43:15.487Z,1.70
2018-06-21T13:45:44.932Z,1.40
2018-06-21T13:48:14.240Z,1.97
2018-06-21T13:50:43.568Z,1.60
2018-06-21T13:53:12.928Z,1.20
2018-06-21T13:55:42.252Z,1.60
2018-06-21T13:58:11.533Z,1.33
2018-06-21T14:00:40.863Z,1.70
2018-06-21T14:03:10.177Z,1.53
2018-06-21T14:05:39.516Z,1.30
2018-06-21T14:08:08.966Z,1.80
2018-06-21T14:10:44.882Z,1.53
2018-06-21T14:13:14.148Z,1.43
2018-06-21T14:15:43.461Z,1.50
2018-06-21T14:18:12.735Z,1.80
2018-06-21T14:20:42.090Z,1.70
2018-06-21T14:23:11.383Z,1.90
2018-06-21T14:25:40.648Z,1.80
2018-06-21T14:28:10.003Z,2.10
2018-06-21T14:30:39.456Z,2.63
2018-06-21T14:33:08.722Z,1.43
2018-06-21T14:35:38.106Z,1.93
2018-06-21T14:38:07.377Z,1.90
2018-06-21T14:40:36.625Z,1.60
2018-06-21T14:43:06.117Z,1.90
2018-06-21T14:45:35.375Z,1.77
2018-06-21T14:48:04.777Z,1.90
2018-06-21T14:50:34.073Z,1.60
2018-06-21T14:53:04.368Z,1.40
2018-06-21T14:55:33.738Z,1.70
2018-06-21T14:58:03.005Z,1.80
2018-06-21T15:00:32.395Z,1.60
2018-06-21T15:03:01.771Z,2.17
2018-06-21T15:05:31.050Z,1.70
2018-06-21T15:08:00.414Z,1.50
2018-06-21T15:10:29.548Z,1.50
2018-06-21T15:12:58.834Z,1.50
2018-06-21T15:15:28.074Z,1.70
2018-06-21T15:17:57.327Z,1.50
2018-06-21T15:20:26.671Z,1.77
2018-06-21T15:22:58.996Z,1.53
2018-06-21T15:25:28.291Z,1.57
2018-06-21T15:27:57.536Z,1.37
2018-06-21T15:30:26.787Z,1.77
2018-06-21T15:32:56.187Z,1.87
2018-06-21T15:35:25.502Z,1.50
2018-06-21T15:37:54.817Z,1.70
2018-06-21T15:40:24.088Z,1.73
2018-06-21T15:42:53.401Z,1.90
2018-06-21T15:45:22.696Z,1.53
2018-06-21T15:47:52.055Z,1.73
2018-06-21T15:50:21.395Z,1.53
2018-06-21T15:52:50.666Z,1.30
2018-06-21T15:55:19.940Z,1.80
2018-06-21T15:57:49.261Z,1.53
2018-06-21T16:00:18.541Z,1.30
2018-06-21T16:02:47.917Z,1.50
2018-06-21T16:05:17.165Z,1.57
2018-06-21T16:07:46.524Z,1.37
2018-06-21T16:10:15.929Z,1.47
2018-06-21T16:12:45.226Z,1.53
2018-06-21T16:15:14.550Z,1.57
2018-06-21T16:17:43.917Z,1.80
2018-06-21T16:20:13.359Z,1.33
2018-06-21T16:22:42.917Z,2.20
2018-06-21T16:25:12.299Z,2.63
2018-06-21T16:27:41.714Z,2.10
2018-06-21T16:30:11.196Z,2.37
2018-06-21T16:32:40.587Z,2.00
2018-06-21T16:35:09.964Z,1.80
2018-06-21T16:37:39.326Z,1.70
2018-06-21T16:40:08.713Z,1.60
2018-06-21T16:42:38.078Z,1.70
2018-06-21T16:45:07.412Z,1.30
2018-06-21T16:47:36.676Z,1.70
2018-06-21T16:50:05.956Z,1.53
2018-06-21T16:52:35.254Z,1.50
2018-06-21T16:55:04.569Z,1.40
2018-06-21T16:57:33.830Z,1.70
2018-06-21T17:00:03.072Z,1.53
2018-06-21T17:02:32.359Z,1.40
2018-06-21T17:05:01.632Z,1.60
2018-06-21T17:07:30.911Z,1.67
2018-06-21T17:10:00.301Z,1.20
2018-06-21T17:12:29.581Z,1.67
2018-06-21T17:14:58.917Z,1.70
2018-06-21T17:17:28.221Z,1.40
2018-06-21T17:19:57.490Z,1.40
2018-06-21T17:22:26.743Z,1.50
2018-06-21T17:24:56.029Z,1.73
2018-06-21T17:27:25.291Z,1.50
2018-06-21T17:29:54.565Z,1.63
2018-06-21T17:32:23.863Z,1.97
2018-06-21T17:34:53.254Z,1.40
2018-06-21T17:37:22.499Z,2.03
2018-06-21T17:39:51.876Z,1.90
2018-06-21T17:42:21.146Z,1.80
2018-06-21T17:44:50.607Z,2.00
2018-06-21T17:47:19.904Z,1.73
2018-06-21T17:49:49.264Z,2.17
2018-06-21T17:52:18.620Z,1.60
2018-06-21T17:54:48.091Z,1.63
2018-06-21T17:57:17.461Z,1.77
2018-06-21T17:59:49.581Z,2.00
2018-06-21T18:02:18.940Z,1.90
2018-06-21T18:04:48.243Z,2.00
2018-06-21T18:07:18.341Z,2.70
2018-06-21T18:09:50.112Z,2.10
2018-06-21T18:12:19.625Z,1.63
2018-06-21T18:14:48.889Z,1.60
2018-06-21T18:17:18.355Z,1.53
2018-06-21T18:19:47.688Z,1.83
2018-06-21T18:22:17.017Z,1.90
2018-06-21T18:24:47.525Z,1.83
2018-06-21T18:27:16.913Z,1.27
2018-06-21T18:29:46.206Z,1.87
2018-06-21T18:32:15.626Z,1.70
2018-06-21T18:34:44.967Z,1.33
2018-06-21T18:37:14.333Z,1.83
2018-06-21T18:39:43.931Z,1.53
2018-06-21T18:42:13.247Z,1.50
2018-06-21T18:44:42.637Z,1.33
2018-06-21T18:47:12.015Z,1.37
2018-06-21T18:49:41.426Z,1.63
2018-06-21T18:52:10.812Z,1.13
2018-06-21T18:54:40.180Z,3.10
2018-06-21T18:57:09.571Z,1.90
2018-06-21T18:59:38.884Z,1.07
2018-06-21T19:02:08.245Z,1.10
2018-06-21T19:04:37.551Z,1.00
2018-06-21T19:07:13.049Z,1.30
2018-06-21T19:09:47.655Z,1.50
2018-06-21T19:12:18.245Z,1.50
2018-06-21T19:14:47.553Z,1.17
2018-06-21T19:17:16.852Z,1.30
2018-06-21T19:19:46.261Z,1.50
2018-06-21T19:22:15.391Z,1.40
2018-06-21T19:24:44.695Z,1.60
2018-06-21T19:27:13.946Z,1.50
2018-06-21T19:29:43.517Z,1.63
2018-06-21T19:32:13.192Z,2.00
2018-06-21T19:34:42.503Z,1.77
2018-06-21T19:37:12.523Z,1.70
2018-06-21T19:39:41.705Z,2.07
2018-06-21T19:42:11.194Z,2.40
2018-06-21T19:44:40.575Z,2.33
2018-06-21T19:47:10.252Z,1.80
2018-06-21T19:49:39.593Z,2.10
2018-06-21T19:52:09.001Z,2.50
2018-06-21T19:54:38.294Z,1.97
2018-06-21T19:57:07.607Z,2.10
2018-06-21T19:59:36.945Z,1.73
2018-06-21T20:02:06.231Z,1.90
2018-06-21T20:04:35.610Z,1.80
2018-06-21T20:07:04.875Z,2.27
2018-06-21T20:09:34.201Z,2.17
2018-06-21T20:12:05.198Z,2.63
2018-06-21T20:14:35.537Z,2.20
2018-06-21T20:17:06.954Z,2.87
2018-06-21T20:19:41.495Z,2.60
2018-06-21T20:22:11.030Z,2.17
2018-06-21T20:24:40.636Z,2.03
2018-06-21T20:27:09.915Z,2.60
2018-06-21T20:29:39.252Z,2.40
2018-06-21T20:32:08.639Z,2.37
2018-06-21T20:34:37.936Z,2.07
2018-06-21T20:37:11.339Z,2.50
2018-06-21T20:39:40.766Z,2.67
2018-06-21T20:42:10.141Z,1.80
2018-06-21T20:44:39.472Z,2.30
2018-06-21T20:47:08.900Z,2.30
2018-06-21T20:49:38.289Z,1.80
2018-06-21T20:52:12.083Z,2.70
2018-06-21T20:54:41.525Z,2.20
2018-06-21T20:57:11.021Z,2.30
2018-06-21T20:59:40.197Z,2.20
2018-06-21T21:02:10.906Z,2.07
2018-06-21T21:05:12.749Z,1.40
2018-06-21T21:07:42.489Z,2.07
2018-06-21T21:10:13.081Z,1.80
2018-06-21T21:12:42.552Z,1.87
2018-06-21T21:15:13.072Z,1.77
2018-06-21T21:17:42.954Z,1.90
2018-06-21T21:20:12.570Z,2.47
2018-06-21T21:22:42.318Z,1.73
2018-06-21T21:25:13.187Z,1.70
2018-06-21T21:27:47.993Z,1.67
2018-06-21T21:30:18.651Z,1.47
2018-06-21T21:32:48.346Z,2.00
2018-06-21T21:35:18.399Z,1.60
2018-06-21T21:37:48.151Z,2.00
2018-06-21T21:40:18.144Z,2.03
2018-06-21T21:42:47.505Z,2.07
2018-06-21T21:45:16.963Z,1.87
2018-06-21T21:47:46.935Z,2.13
2018-06-21T21:50:16.530Z,1.90
2018-06-21T21:52:46.489Z,2.13
2018-06-21T21:55:15.915Z,2.37
2018-06-21T21:57:47.754Z,1.50
2018-06-21T22:01:00.609Z,1.73
2018-06-21T22:03:31.793Z,1.97
2018-06-21T22:06:01.146Z,2.50
2018-06-21T22:08:30.391Z,2.10
2018-06-21T22:10:59.703Z,1.80
2018-06-21T22:13:29.094Z,1.90
2018-06-21T22:15:58.339Z,2.30
2018-06-21T22:18:27.701Z,1.83
2018-06-21T22:20:57.027Z,3.00
2018-06-21T22:23:26.307Z,2.37
2018-06-21T22:25:55.649Z,2.27
2018-06-21T22:28:24.945Z,1.83
2018-06-21T22:30:54.208Z,2.00
2018-06-21T22:33:24.462Z,2.30
2018-06-21T22:35:54.359Z,2.20
2018-06-21T22:38:25.594Z,2.37
2018-06-21T22:40:56.110Z,2.20
2018-06-21T22:43:25.434Z,1.70
2018-06-21T22:45:55.283Z,2.10
2018-06-21T22:48:25.081Z,1.90
2018-06-21T22:50:55.152Z,2.50
2018-06-21T22:53:24.573Z,2.10
2018-06-21T22:55:55.102Z,2.00
2018-06-21T22:58:24.404Z,1.80
2018-06-21T23:00:53.699Z,1.90
2018-06-21T23:03:22.976Z,1.67
2018-06-21T23:05:52.234Z,2.03
2018-06-21T23:08:21.498Z,2.33
2018-06-21T23:10:50.881Z,2.73
2018-06-21T23:13:20.118Z,2.30
2018-06-21T23:15:49.537Z,2.13
2018-06-21T23:19:28.794Z,2.37
2018-06-21T23:21:58.204Z,2.43
2018-06-21T23:24:27.709Z,1.90
2018-06-21T23:26:57.082Z,2.53
2018-06-21T23:29:26.313Z,2.37
2018-06-21T23:31:55.680Z,1.83
2018-06-21T23:34:24.947Z,2.63
2018-06-21T23:36:54.214Z,2.20
2018-06-21T23:39:25.418Z,1.90
2018-06-21T23:41:54.652Z,2.67
2018-06-21T23:44:30.082Z,2.23
2018-06-21T23:46:59.365Z,2.07
2018-06-21T23:49:28.662Z,2.20
2018-06-21T23:51:57.958Z,2.30
2018-06-21T23:54:27.876Z,2.00
2018-06-21T23:56:57.139Z,1.97
2018-06-21T23:59:29.100Z,1.90
